F/v_l'omerta — FHXG — position and weather

sailwx.info

Track history (hours):
 
Tides and Currents Weather Stations Pressure Air Temp Water Temp Dewpoint Dewpoint Depression Visibility Wind Speed Wind Dir Waves Ship Positions

F/v_l'omerta

Last reported at 2014-Oct-26 00:07 UTC. Time now 2014-Oct-26 04:31 UTC.
Position N 46°12' W 001°45'.

Length 18 m.

Type: Fishing. MMSI: 227903000.

Date/timePositionNaut miles runAvg speedWind from/ knotsBaromVisibWave heightAir tempDewpointWater temp
2014-Oct-26 00:07N 46°12' W 001°45'2 3.4
2014-Oct-25 23:33N 46°14' W 001°47'3 3.5
2014-Oct-25 22:33N 46°17' W 001°49'3 2.8
2014-Oct-25 21:34N 46°19' W 001°51'4 3.6
2014-Oct-25 20:34N 46°23' W 001°53'3 3.5
2014-Oct-25 19:34N 46°26' W 001°55'3 2.8
2014-Oct-25 18:33N 46°26' W 001°59'3 2.9
2014-Oct-25 17:34N 46°26' W 002°03'4 3.8
2014-Oct-25 16:33N 46°28' W 001°58'2 2.2
2014-Oct-25 15:33N 46°26' W 002°00'2 2.4
2014-Oct-25 14:33N 46°27' W 002°04'3 3.2
2014-Oct-25 13:33N 46°28' W 001°59'2 1.5
2014-Oct-25 12:33N 46°26' W 001°60'3 3.2
2014-Oct-25 11:33N 46°26' W 002°05'4 3.9
2014-Oct-25 10:33N 46°28' W 001°59'1 1.3
2014-Oct-25 09:34N 46°26' W 001°59'3 3.5
2014-Oct-25 08:33N 46°26' W 002°04'4 4.0
2014-Oct-25 07:34N 46°28' W 001°59'2 1.7
2014-Oct-25 06:34N 46°26' W 002°00'3 2.7
2014-Oct-25 05:33N 46°25' W 002°04'3 3.2
2014-Oct-25 04:33N 46°28' W 002°01'2 2.4
2014-Oct-25 03:33N 46°27' W 001°57'4 3.8
2014-Oct-25 02:34N 46°25' W 002°02'2 2.4
2014-Oct-25 01:33N 46°23' W 002°02'3 3.1
2014-Oct-25 00:32N 46°20' W 001°59'3 3.0
2014-Oct-24 23:33N 46°21' W 001°55'3 3.4
2014-Oct-24 22:33N 46°21' W 001°50'2 1.9
2014-Oct-24 21:34N 46°21' W 001°48'3 3.4
2014-Oct-24 20:34N 46°24' W 001°51'3 3.4
2014-Oct-24 19:33N 46°26' W 001°55'3 3.3
2014-Oct-24 18:34N 46°27' W 001°59'1 1.2
2014-Oct-24 17:33N 46°27' W 002°01'3 2.6
2014-Oct-24 16:34N 46°27' W 001°57'4 3.8
2014-Oct-24 15:31N 46°26' W 002°03'3 3.1
2014-Oct-24 14:33N 46°27' W 001°59'6 5.5
2014-Oct-24 13:33N 46°28' W 001°51'3 2.9
2014-Oct-24 12:34N 46°29' W 001°47'8 7.6
2014-Oct-24 11:33N 46°27' W 001°58'2 2.3
2014-Oct-24 10:33N 46°27' W 002°01'2 2.0
2014-Oct-24 09:33N 46°27' W 001°58'3 3.3
2014-Oct-24 08:34N 46°26' W 002°03'3 2.7
2014-Oct-24 07:33N 46°28' W 001°60'3 2.6
2014-Oct-24 06:34N 46°26' W 001°56'4 4.2
2014-Oct-24 05:33N 46°24' W 001°52'8 8.3
2014-Oct-24 04:33N 46°20' W 001°41'10 2.0
2014-Oct-23 23:20N 46°10' W 001°35'7 8.9
2014-Oct-23 22:33N 46°14' W 001°44'3 3.2
2014-Oct-23 21:34N 46°17' W 001°46'3 3.5
2014-Oct-23 20:34N 46°19' W 001°50'3 3.4
2014-Oct-23 19:33N 46°20' W 001°54'3 3.4
2014-Oct-23 18:33N 46°20' W 001°59'3 3.4
2014-Oct-23 17:34N 46°23' W 002°02'4 3.6
2014-Oct-23 16:34N 46°27' W 002°00'1 0.7
2014-Oct-23 15:34N 46°26' W 001°60'3 3.4
2014-Oct-23 14:34N 46°24' W 002°03'3 3.1
2014-Oct-23 13:33N 46°21' W 002°00'5 1.6
2014-Oct-23 10:31N 46°16' W 002°01'7 2.4
2014-Oct-23 07:33N 46°13' W 001°51'4 4.2
2014-Oct-23 06:33N 46°18' W 001°50'2 2.0
2014-Oct-23 05:34N 46°18' W 001°47'3 2.9
2014-Oct-23 04:33N 46°15' W 001°47'3 3.4
2014-Oct-23 03:33N 46°17' W 001°50'4 3.7
2014-Oct-23 02:33N 46°21' W 001°52'2 2.2
2014-Oct-23 01:33N 46°21' W 001°49'4 3.6
2014-Oct-23 00:33N 46°18' W 001°47'3 3.3
2014-Oct-22 23:32N 46°15' W 001°46'3 3.4
2014-Oct-22 22:34N 46°17' W 001°49'1 0.9
2014-Oct-22 21:34N 46°18' W 001°50'4 3.7
2014-Oct-22 20:33N 46°14' W 001°47'7 3.6
2014-Oct-22 18:32N 46°08' W 001°42'5 0.7
2014-Oct-22 11:34N 46°12' W 001°46'4 4.2
2014-Oct-22 10:33N 46°16' W 001°49'2 2.3
2014-Oct-22 09:33N 46°18' W 001°47'4 1.9
2014-Oct-22 07:33N 46°14' W 001°47'5 4.5
2014-Oct-22 06:33N 46°18' W 001°50'5 5.0
2014-Oct-22 05:34N 46°23' W 001°51'7 7.1
2014-Oct-22 04:33N 46°30' W 001°48'0 0.0
2014-Oct-22 03:33N 46°30' W 001°48'0 0.0
2014-Oct-22 02:33N 46°30' W 001°48'0 0.0
2014-Oct-22 01:33N 46°30' W 001°48'0 0.0
2014-Oct-22 00:33N 46°30' W 001°48'0 0.0
2014-Oct-21 23:34N 46°30' W 001°48'0 0.0
2014-Oct-21 22:33N 46°30' W 001°48'0 0.0
2014-Oct-21 21:33N 46°30' W 001°48'0 0.0
2014-Oct-21 20:33N 46°30' W 001°48'0 0.0
2014-Oct-21 19:33N 46°30' W 001°48'0 0.0
2014-Oct-21 18:33N 46°30' W 001°48'0 0.0
2014-Oct-21 17:33N 46°30' W 001°48'0 0.0
2014-Oct-21 16:33N 46°30' W 001°48'0 0.0
2014-Oct-21 15:33N 46°30' W 001°48'0 0.1
2014-Oct-21 14:34N 46°30' W 001°47'0 0.1
2014-Oct-21 13:34N 46°30' W 001°47'0 0.0
2014-Oct-21 12:33N 46°30' W 001°47'0 0.0
2014-Oct-21 11:33N 46°30' W 001°47'0 0.0
2014-Oct-21 10:34N 46°30' W 001°47'0 0.0
2014-Oct-21 09:33N 46°30' W 001°47'0 0.0
2014-Oct-21 08:34N 46°30' W 001°47'0 0.0
2014-Oct-21 07:33N 46°30' W 001°47'0 0.0
2014-Oct-21 06:34N 46°30' W 001°47'0 0.0
2014-Oct-21 05:33N 46°30' W 001°47'0 0.0
2014-Oct-21 04:33N 46°30' W 001°47'0 0.0
2014-Oct-21 03:33N 46°30' W 001°47'0 0.0
2014-Oct-21 02:34N 46°30' W 001°47'0 0.0
2014-Oct-21 01:34N 46°30' W 001°47'0 0.0
2014-Oct-21 00:33N 46°30' W 001°47'0 0.0
2014-Oct-20 23:34N 46°30' W 001°47'0 0.0
2014-Oct-20 22:34N 46°30' W 001°47'0 0.0
2014-Oct-20 21:34N 46°30' W 001°47'0 0.0
2014-Oct-20 20:34N 46°30' W 001°47'0 0.0
2014-Oct-20 19:33N 46°30' W 001°47'0 0.0
2014-Oct-20 18:33N 46°30' W 001°47'0 0.0
2014-Oct-20 17:34N 46°30' W 001°47'0 0.0
2014-Oct-20 16:33N 46°30' W 001°47'0 0.0
2014-Oct-20 15:33N 46°30' W 001°47'0 0.0
2014-Oct-20 14:34N 46°30' W 001°47'0 0.0
2014-Oct-20 13:33N 46°30' W 001°47'0 0.0
2014-Oct-20 12:33N 46°30' W 001°47'0 0.0
2014-Oct-20 11:34N 46°30' W 001°47'0 0.0
2014-Oct-20 10:33N 46°30' W 001°47'0 0.0
2014-Oct-20 09:33N 46°30' W 001°47'0 0.0
2014-Oct-20 08:33N 46°30' W 001°47'0 0.0
2014-Oct-20 07:34N 46°30' W 001°47'0 0.0
2014-Oct-20 06:33N 46°30' W 001°47'0 0.0
2014-Oct-20 05:33N 46°30' W 001°47'0 0.0
2014-Oct-20 04:33N 46°30' W 001°47'0 0.0
2014-Oct-20 03:33N 46°30' W 001°47'0 0.0
2014-Oct-20 02:34N 46°30' W 001°47'0 0.0
2014-Oct-20 01:33N 46°30' W 001°47'0 0.0
2014-Oct-20 00:34N 46°30' W 001°47'0 0.0
2014-Oct-19 23:33N 46°30' W 001°47'0 0.0
2014-Oct-19 22:33N 46°30' W 001°47'0 0.0
2014-Oct-19 21:33N 46°30' W 001°47'0 0.0
2014-Oct-19 20:33N 46°30' W 001°47'0 0.0
2014-Oct-19 19:33N 46°30' W 001°47'0 0.0
2014-Oct-19 18:33N 46°30' W 001°47'0 0.0
2014-Oct-19 17:34N 46°30' W 001°47'0 0.0
2014-Oct-19 16:33N 46°30' W 001°47'0 0.0
2014-Oct-19 15:33N 46°30' W 001°47'0 0.0
2014-Oct-19 14:34N 46°30' W 001°47'0 0.0
2014-Oct-19 13:34N 46°30' W 001°47'0 0.0
2014-Oct-19 12:34N 46°30' W 001°47'0 0.0
2014-Oct-19 11:33N 46°30' W 001°47'0 0.0
2014-Oct-19 10:34N 46°30' W 001°47'0 0.0
2014-Oct-19 09:34N 46°30' W 001°47'0 0.0
2014-Oct-19 08:33N 46°30' W 001°47'0 0.0
2014-Oct-19 07:33N 46°30' W 001°47'0 0.0
2014-Oct-19 06:33N 46°30' W 001°47'0 0.0
2014-Oct-19 05:33N 46°30' W 001°47'0 0.0
2014-Oct-19 04:33N 46°30' W 001°47'0 0.0
2014-Oct-19 03:34N 46°30' W 001°47'0 0.0
2014-Oct-19 02:33N 46°30' W 001°47'0 0.0
2014-Oct-19 01:34N 46°30' W 001°47'0 0.0
2014-Oct-19 00:34N 46°30' W 001°47'0 0.0
2014-Oct-18 23:34N 46°30' W 001°47'0 0.0
2014-Oct-18 22:33N 46°30' W 001°47'0 0.0
2014-Oct-18 21:34N 46°30' W 001°47'0 0.0
2014-Oct-18 20:33N 46°30' W 001°47'0 0.0
2014-Oct-18 19:34N 46°30' W 001°47'0 0.0
2014-Oct-18 18:34N 46°30' W 001°47'0 0.0
2014-Oct-18 17:33N 46°30' W 001°47'0 0.0
2014-Oct-18 16:34N 46°30' W 001°47'0 0.0
2014-Oct-18 15:33N 46°30' W 001°47'0 0.0
2014-Oct-18 14:34N 46°30' W 001°47'0 0.0
2014-Oct-18 13:34N 46°30' W 001°47'0 0.0
2014-Oct-18 12:34N 46°30' W 001°47'0 0.0
2014-Oct-18 11:33N 46°30' W 001°47'0 0.0
2014-Oct-18 10:33N 46°30' W 001°47'0 0.0
2014-Oct-18 09:34N 46°30' W 001°47'0 0.0
2014-Oct-18 08:34N 46°30' W 001°47'0 0.0
2014-Oct-18 07:33N 46°30' W 001°47'0 0.0
2014-Oct-18 06:33N 46°30' W 001°47'0 0.0
2014-Oct-18 05:33N 46°30' W 001°47'0 0.0
2014-Oct-18 04:34N 46°30' W 001°47'0 0.0
2014-Oct-18 03:33N 46°30' W 001°47'0 0.0
2014-Oct-18 02:33N 46°30' W 001°47'0 0.0
2014-Oct-18 01:33N 46°30' W 001°47'0 0.0
2014-Oct-18 00:33N 46°30' W 001°47'0 0.0
2014-Oct-17 23:33N 46°30' W 001°47'0 0.0
2014-Oct-17 22:33N 46°30' W 001°47'0 0.0
2014-Oct-17 21:34N 46°30' W 001°47'0 0.0
2014-Oct-17 20:34N 46°30' W 001°47'0 0.0
2014-Oct-17 19:33N 46°30' W 001°47'0 0.0
2014-Oct-17 18:34N 46°30' W 001°47'0 0.0
2014-Oct-17 17:33N 46°30' W 001°47'0 0.0
2014-Oct-17 16:33N 46°30' W 001°47'0 0.0
2014-Oct-17 15:34N 46°30' W 001°47'0 0.0
2014-Oct-17 14:34N 46°30' W 001°47'0 0.0
2014-Oct-17 13:33N 46°30' W 001°47'0 0.0
2014-Oct-17 12:33N 46°30' W 001°47'0 0.0
2014-Oct-17 11:33N 46°30' W 001°47'0 0.0
2014-Oct-17 10:33N 46°30' W 001°47'0 0.0
2014-Oct-17 09:33N 46°30' W 001°47'0 0.0
2014-Oct-17 08:33N 46°30' W 001°47'0 0.0
2014-Oct-17 07:34N 46°30' W 001°47'0 0.0
2014-Oct-16 20:16N 46°30' W 001°47'0 0.0
2014-Oct-16 19:34N 46°30' W 001°47'0 0.0
2014-Oct-16 18:33N 46°30' W 001°47'0 0.0
2014-Oct-16 17:33N 46°30' W 001°47'0 0.0
2014-Oct-16 16:33N 46°30' W 001°47'0 0.0
2014-Oct-16 15:34N 46°30' W 001°47'0 0.0
2014-Oct-16 14:33N 46°30' W 001°47'0 0.0
2014-Oct-16 13:33N 46°30' W 001°47'0 0.0
2014-Oct-16 12:34N 46°30' W 001°47'0 0.0
2014-Oct-16 09:33N 46°30' W 001°47'0 0.0
2014-Oct-16 08:33N 46°30' W 001°47'0 0.0
2014-Oct-16 07:33N 46°30' W 001°47'  
Track history (hours):
 
Tides and Currents Weather Stations Pressure Air Temp Water Temp Dewpoint Dewpoint Depression Visibility Wind Speed Wind Dir Waves Ship Positions

F/v_l'omerta

Last reported at 2014-Oct-26 00:07 UTC. Time now 2014-Oct-26 04:31 UTC.
Position N 46°12' W 001°45'.

Length 18 m.

Type: Fishing. MMSI: 227903000.

Date/timePositionNaut miles runAvg speedWind from/ knotsBaromVisibWave heightAir tempDewpointWater temp
2014-Oct-26 00:07N 46°12' W 001°45'2 3.4
2014-Oct-25 23:33N 46°14' W 001°47'3 3.5
2014-Oct-25 22:33N 46°17' W 001°49'3 2.8
2014-Oct-25 21:34N 46°19' W 001°51'4 3.6
2014-Oct-25 20:34N 46°23' W 001°53'3 3.5
2014-Oct-25 19:34N 46°26' W 001°55'3 2.8
2014-Oct-25 18:33N 46°26' W 001°59'3 2.9
2014-Oct-25 17:34N 46°26' W 002°03'4 3.8
2014-Oct-25 16:33N 46°28' W 001°58'2 2.2
2014-Oct-25 15:33N 46°26' W 002°00'2 2.4
2014-Oct-25 14:33N 46°27' W 002°04'3 3.2
2014-Oct-25 13:33N 46°28' W 001°59'2 1.5
2014-Oct-25 12:33N 46°26' W 001°60'3 3.2
2014-Oct-25 11:33N 46°26' W 002°05'4 3.9
2014-Oct-25 10:33N 46°28' W 001°59'1 1.3
2014-Oct-25 09:34N 46°26' W 001°59'3 3.5
2014-Oct-25 08:33N 46°26' W 002°04'4 4.0
2014-Oct-25 07:34N 46°28' W 001°59'2 1.7
2014-Oct-25 06:34N 46°26' W 002°00'3 2.7
2014-Oct-25 05:33N 46°25' W 002°04'3 3.2
2014-Oct-25 04:33N 46°28' W 002°01'2 2.4
2014-Oct-25 03:33N 46°27' W 001°57'4 3.8
2014-Oct-25 02:34N 46°25' W 002°02'2 2.4
2014-Oct-25 01:33N 46°23' W 002°02'3 3.1
2014-Oct-25 00:32N 46°20' W 001°59'3 3.0
2014-Oct-24 23:33N 46°21' W 001°55'3 3.4
2014-Oct-24 22:33N 46°21' W 001°50'2 1.9
2014-Oct-24 21:34N 46°21' W 001°48'3 3.4
2014-Oct-24 20:34N 46°24' W 001°51'3 3.4
2014-Oct-24 19:33N 46°26' W 001°55'3 3.3
2014-Oct-24 18:34N 46°27' W 001°59'1 1.2
2014-Oct-24 17:33N 46°27' W 002°01'3 2.6
2014-Oct-24 16:34N 46°27' W 001°57'4 3.8
2014-Oct-24 15:31N 46°26' W 002°03'3 3.1
2014-Oct-24 14:33N 46°27' W 001°59'6 5.5
2014-Oct-24 13:33N 46°28' W 001°51'3 2.9
2014-Oct-24 12:34N 46°29' W 001°47'8 7.6
2014-Oct-24 11:33N 46°27' W 001°58'2 2.3
2014-Oct-24 10:33N 46°27' W 002°01'2 2.0
2014-Oct-24 09:33N 46°27' W 001°58'3 3.3
2014-Oct-24 08:34N 46°26' W 002°03'3 2.7
2014-Oct-24 07:33N 46°28' W 001°60'3 2.6
2014-Oct-24 06:34N 46°26' W 001°56'4 4.2
2014-Oct-24 05:33N 46°24' W 001°52'8 8.3
2014-Oct-24 04:33N 46°20' W 001°41'10 2.0
2014-Oct-23 23:20N 46°10' W 001°35'7 8.9
2014-Oct-23 22:33N 46°14' W 001°44'3 3.2
2014-Oct-23 21:34N 46°17' W 001°46'3 3.5
2014-Oct-23 20:34N 46°19' W 001°50'3 3.4
2014-Oct-23 19:33N 46°20' W 001°54'3 3.4
2014-Oct-23 18:33N 46°20' W 001°59'3 3.4
2014-Oct-23 17:34N 46°23' W 002°02'4 3.6
2014-Oct-23 16:34N 46°27' W 002°00'1 0.7
2014-Oct-23 15:34N 46°26' W 001°60'3 3.4
2014-Oct-23 14:34N 46°24' W 002°03'3 3.1
2014-Oct-23 13:33N 46°21' W 002°00'5 1.6
2014-Oct-23 10:31N 46°16' W 002°01'7 2.4
2014-Oct-23 07:33N 46°13' W 001°51'4 4.2
2014-Oct-23 06:33N 46°18' W 001°50'2 2.0
2014-Oct-23 05:34N 46°18' W 001°47'3 2.9
2014-Oct-23 04:33N 46°15' W 001°47'3 3.4
2014-Oct-23 03:33N 46°17' W 001°50'4 3.7
2014-Oct-23 02:33N 46°21' W 001°52'2 2.2
2014-Oct-23 01:33N 46°21' W 001°49'4 3.6
2014-Oct-23 00:33N 46°18' W 001°47'3 3.3
2014-Oct-22 23:32N 46°15' W 001°46'3 3.4
2014-Oct-22 22:34N 46°17' W 001°49'1 0.9
2014-Oct-22 21:34N 46°18' W 001°50'4 3.7
2014-Oct-22 20:33N 46°14' W 001°47'7 3.6
2014-Oct-22 18:32N 46°08' W 001°42'5 0.7
2014-Oct-22 11:34N 46°12' W 001°46'4 4.2
2014-Oct-22 10:33N 46°16' W 001°49'2 2.3
2014-Oct-22 09:33N 46°18' W 001°47'4 1.9
2014-Oct-22 07:33N 46°14' W 001°47'5 4.5
2014-Oct-22 06:33N 46°18' W 001°50'5 5.0
2014-Oct-22 05:34N 46°23' W 001°51'7 7.1
2014-Oct-22 04:33N 46°30' W 001°48'0 0.0
2014-Oct-22 03:33N 46°30' W 001°48'0 0.0
2014-Oct-22 02:33N 46°30' W 001°48'0 0.0
2014-Oct-22 01:33N 46°30' W 001°48'0 0.0
2014-Oct-22 00:33N 46°30' W 001°48'0 0.0
2014-Oct-21 23:34N 46°30' W 001°48'0 0.0
2014-Oct-21 22:33N 46°30' W 001°48'0 0.0
2014-Oct-21 21:33N 46°30' W 001°48'0 0.0
2014-Oct-21 20:33N 46°30' W 001°48'0 0.0
2014-Oct-21 19:33N 46°30' W 001°48'0 0.0
2014-Oct-21 18:33N 46°30' W 001°48'0 0.0
2014-Oct-21 17:33N 46°30' W 001°48'0 0.0
2014-Oct-21 16:33N 46°30' W 001°48'0 0.0
2014-Oct-21 15:33N 46°30' W 001°48'0 0.1
2014-Oct-21 14:34N 46°30' W 001°47'0 0.1
2014-Oct-21 13:34N 46°30' W 001°47'0 0.0
2014-Oct-21 12:33N 46°30' W 001°47'0 0.0
2014-Oct-21 11:33N 46°30' W 001°47'0 0.0
2014-Oct-21 10:34N 46°30' W 001°47'0 0.0
2014-Oct-21 09:33N 46°30' W 001°47'0 0.0
2014-Oct-21 08:34N 46°30' W 001°47'0 0.0
2014-Oct-21 07:33N 46°30' W 001°47'0 0.0
2014-Oct-21 06:34N 46°30' W 001°47'0 0.0
2014-Oct-21 05:33N 46°30' W 001°47'0 0.0
2014-Oct-21 04:33N 46°30' W 001°47'0 0.0
2014-Oct-21 03:33N 46°30' W 001°47'0 0.0
2014-Oct-21 02:34N 46°30' W 001°47'0 0.0
2014-Oct-21 01:34N 46°30' W 001°47'0 0.0
2014-Oct-21 00:33N 46°30' W 001°47'0 0.0
2014-Oct-20 23:34N 46°30' W 001°47'0 0.0
2014-Oct-20 22:34N 46°30' W 001°47'0 0.0
2014-Oct-20 21:34N 46°30' W 001°47'0 0.0
2014-Oct-20 20:34N 46°30' W 001°47'0 0.0
2014-Oct-20 19:33N 46°30' W 001°47'0 0.0
2014-Oct-20 18:33N 46°30' W 001°47'0 0.0
2014-Oct-20 17:34N 46°30' W 001°47'0 0.0
2014-Oct-20 16:33N 46°30' W 001°47'0 0.0
2014-Oct-20 15:33N 46°30' W 001°47'0 0.0
2014-Oct-20 14:34N 46°30' W 001°47'0 0.0
2014-Oct-20 13:33N 46°30' W 001°47'0 0.0
2014-Oct-20 12:33N 46°30' W 001°47'0 0.0
2014-Oct-20 11:34N 46°30' W 001°47'0 0.0
2014-Oct-20 10:33N 46°30' W 001°47'0 0.0
2014-Oct-20 09:33N 46°30' W 001°47'0 0.0
2014-Oct-20 08:33N 46°30' W 001°47'0 0.0
2014-Oct-20 07:34N 46°30' W 001°47'0 0.0
2014-Oct-20 06:33N 46°30' W 001°47'0 0.0
2014-Oct-20 05:33N 46°30' W 001°47'0 0.0
2014-Oct-20 04:33N 46°30' W 001°47'0 0.0
2014-Oct-20 03:33N 46°30' W 001°47'0 0.0
2014-Oct-20 02:34N 46°30' W 001°47'0 0.0
2014-Oct-20 01:33N 46°30' W 001°47'0 0.0
2014-Oct-20 00:34N 46°30' W 001°47'0 0.0
2014-Oct-19 23:33N 46°30' W 001°47'0 0.0
2014-Oct-19 22:33N 46°30' W 001°47'0 0.0
2014-Oct-19 21:33N 46°30' W 001°47'0 0.0
2014-Oct-19 20:33N 46°30' W 001°47'0 0.0
2014-Oct-19 19:33N 46°30' W 001°47'0 0.0
2014-Oct-19 18:33N 46°30' W 001°47'0 0.0
2014-Oct-19 17:34N 46°30' W 001°47'0 0.0
2014-Oct-19 16:33N 46°30' W 001°47'0 0.0
2014-Oct-19 15:33N 46°30' W 001°47'0 0.0
2014-Oct-19 14:34N 46°30' W 001°47'0 0.0
2014-Oct-19 13:34N 46°30' W 001°47'0 0.0
2014-Oct-19 12:34N 46°30' W 001°47'0 0.0
2014-Oct-19 11:33N 46°30' W 001°47'0 0.0
2014-Oct-19 10:34N 46°30' W 001°47'0 0.0
2014-Oct-19 09:34N 46°30' W 001°47'0 0.0
2014-Oct-19 08:33N 46°30' W 001°47'0 0.0
2014-Oct-19 07:33N 46°30' W 001°47'0 0.0
2014-Oct-19 06:33N 46°30' W 001°47'0 0.0
2014-Oct-19 05:33N 46°30' W 001°47'0 0.0
2014-Oct-19 04:33N 46°30' W 001°47'0 0.0
2014-Oct-19 03:34N 46°30' W 001°47'0 0.0
2014-Oct-19 02:33N 46°30' W 001°47'0 0.0
2014-Oct-19 01:34N 46°30' W 001°47'0 0.0
2014-Oct-19 00:34N 46°30' W 001°47'0 0.0
2014-Oct-18 23:34N 46°30' W 001°47'0 0.0
2014-Oct-18 22:33N 46°30' W 001°47'0 0.0
2014-Oct-18 21:34N 46°30' W 001°47'0 0.0
2014-Oct-18 20:33N 46°30' W 001°47'0 0.0
2014-Oct-18 19:34N 46°30' W 001°47'0 0.0
2014-Oct-18 18:34N 46°30' W 001°47'0 0.0
2014-Oct-18 17:33N 46°30' W 001°47'0 0.0
2014-Oct-18 16:34N 46°30' W 001°47'0 0.0
2014-Oct-18 15:33N 46°30' W 001°47'0 0.0
2014-Oct-18 14:34N 46°30' W 001°47'0 0.0
2014-Oct-18 13:34N 46°30' W 001°47'0 0.0
2014-Oct-18 12:34N 46°30' W 001°47'0 0.0
2014-Oct-18 11:33N 46°30' W 001°47'0 0.0
2014-Oct-18 10:33N 46°30' W 001°47'0 0.0
2014-Oct-18 09:34N 46°30' W 001°47'0 0.0
2014-Oct-18 08:34N 46°30' W 001°47'0 0.0
2014-Oct-18 07:33N 46°30' W 001°47'0 0.0
2014-Oct-18 06:33N 46°30' W 001°47'0 0.0
2014-Oct-18 05:33N 46°30' W 001°47'0 0.0
2014-Oct-18 04:34N 46°30' W 001°47'0 0.0
2014-Oct-18 03:33N 46°30' W 001°47'0 0.0
2014-Oct-18 02:33N 46°30' W 001°47'0 0.0
2014-Oct-18 01:33N 46°30' W 001°47'0 0.0
2014-Oct-18 00:33N 46°30' W 001°47'0 0.0
2014-Oct-17 23:33N 46°30' W 001°47'0 0.0
2014-Oct-17 22:33N 46°30' W 001°47'0 0.0
2014-Oct-17 21:34N 46°30' W 001°47'0 0.0
2014-Oct-17 20:34N 46°30' W 001°47'0 0.0
2014-Oct-17 19:33N 46°30' W 001°47'0 0.0
2014-Oct-17 18:34N 46°30' W 001°47'0 0.0
2014-Oct-17 17:33N 46°30' W 001°47'0 0.0
2014-Oct-17 16:33N 46°30' W 001°47'0 0.0
2014-Oct-17 15:34N 46°30' W 001°47'0 0.0
2014-Oct-17 14:34N 46°30' W 001°47'0 0.0
2014-Oct-17 13:33N 46°30' W 001°47'0 0.0
2014-Oct-17 12:33N 46°30' W 001°47'0 0.0
2014-Oct-17 11:33N 46°30' W 001°47'0 0.0
2014-Oct-17 10:33N 46°30' W 001°47'0 0.0
2014-Oct-17 09:33N 46°30' W 001°47'0 0.0
2014-Oct-17 08:33N 46°30' W 001°47'0 0.0
2014-Oct-17 07:34N 46°30' W 001°47'0 0.0
2014-Oct-16 20:16N 46°30' W 001°47'0 0.0
2014-Oct-16 19:34N 46°30' W 001°47'0 0.0
2014-Oct-16 18:33N 46°30' W 001°47'0 0.0
2014-Oct-16 17:33N 46°30' W 001°47'0 0.0
2014-Oct-16 16:33N 46°30' W 001°47'0 0.0
2014-Oct-16 15:34N 46°30' W 001°47'0 0.0
2014-Oct-16 14:33N 46°30' W 001°47'0 0.0
2014-Oct-16 13:33N 46°30' W 001°47'0 0.0
2014-Oct-16 12:34N 46°30' W 001°47'0 0.0
2014-Oct-16 09:33N 46°30' W 001°47'0 0.0
2014-Oct-16 08:33N 46°30' W 001°47'0 0.0
2014-Oct-16 07:33N 46°30' W 001°47'  

Dump ship's entire track history